ΕΜΥ, Εθνική Μετεωρολογική Υπηρεσία - Δελτία Καιρού, Προγνώσεις

ΑΕΡΟΝΑΥΤΙΛΙΑ

GREEK AIRPORTS CODES

LGKS 301100Z 33014KT 9999 FEW020 BKN025 13/07 Q1013 RMK FEW100 HAND WIND ANEMOMETER OBSERVATION=

EUROPEAN AIRPORTS CODES

LFPO 010530Z AUTO 27006KT 9999 SCT036 06/02 Q1028 NOSIG=